createdAt,value
2023-12-09T00:01:28.677Z,51265.78
2023-12-09T00:06:34.575Z,51253.78
2023-12-09T00:11:38.959Z,51269.78
2023-12-09T00:16:43.448Z,51261.78
2023-12-09T00:21:49.477Z,51291.78
2023-12-09T00:26:53.926Z,51273.78
2023-12-09T00:31:58.432Z,51247.78
2023-12-09T00:37:04.125Z,51269.78
2023-12-09T00:42:08.684Z,51255.78
2023-12-09T00:47:13.032Z,51241.78
2023-12-09T00:52:18.753Z,51247.78
2023-12-09T00:57:25.792Z,51243.78
2023-12-09T01:02:30.779Z,51257.78
2023-12-09T01:07:36.792Z,51279.78
2023-12-09T01:12:41.285Z,51297.78
2023-12-09T01:17:45.786Z,51301.78
2023-12-09T01:22:51.574Z,51251.78
2023-12-09T01:27:55.864Z,51235.78
2023-12-09T01:33:00.513Z,51301.78
2023-12-09T01:38:06.357Z,51253.78
2023-12-09T01:43:11.738Z,51229.78
2023-12-09T01:48:16.602Z,51263.78
2023-12-09T01:53:22.524Z,51221.78
2023-12-09T01:58:28.233Z,51267.78
2023-12-09T02:03:33.618Z,51281.78
2023-12-09T02:08:41.414Z,51253.78
2023-12-09T02:13:57.813Z,51269.78
2023-12-09T02:19:03.461Z,51213.78
2023-12-09T02:24:09.436Z,51273.78
2023-12-09T02:29:15.265Z,51211.78
2023-12-09T02:34:20.348Z,51213.78
2023-12-09T02:39:27.602Z,51267.78
2023-12-09T02:44:32.562Z,51259.78
2023-12-09T02:49:36.912Z,51293.78
2023-12-09T02:54:42.840Z,51265.78
2023-12-09T02:59:47.178Z,51229.78
2023-12-09T03:04:51.597Z,51247.78
2023-12-09T03:09:58.385Z,51251.78
2023-12-09T03:15:06.982Z,51277.78
2023-12-09T03:20:12.631Z,51245.78
2023-12-09T03:25:18.471Z,51275.78
2023-12-09T03:30:23.628Z,51271.78
2023-12-09T03:35:28.285Z,51253.78
2023-12-09T03:40:34.025Z,51293.78
2023-12-09T03:45:38.322Z,51297.78
2023-12-09T03:50:42.654Z,51251.78
2023-12-09T03:55:48.574Z,51251.78
2023-12-09T04:00:53.243Z,51297.78
2023-12-09T04:05:57.774Z,51265.78
2023-12-09T04:11:04.264Z,51271.78
2023-12-09T04:16:09.581Z,51273.78
2023-12-09T04:21:13.987Z,51255.78
2023-12-09T04:26:19.719Z,51281.78
2023-12-09T04:31:24.061Z,51249.78
2023-12-09T04:36:28.535Z,51269.78
2023-12-09T04:41:34.384Z,51233.78
2023-12-09T04:46:39.002Z,51241.78
2023-12-09T04:51:43.347Z,51247.78
2023-12-09T04:56:49.279Z,51233.78
2023-12-09T05:01:53.704Z,51249.78
2023-12-09T05:06:58.142Z,51249.78
2023-12-09T05:12:03.902Z,51243.78
2023-12-09T05:17:08.312Z,51229.78
2023-12-09T05:22:13.347Z,51257.78
2023-12-09T05:27:19.299Z,51239.78
2023-12-09T05:32:23.750Z,51251.78
2023-12-09T05:37:28.177Z,51249.78
2023-12-09T05:42:34.195Z,51279.78
2023-12-09T05:47:38.835Z,51269.78
2023-12-09T05:52:44.092Z,51241.78
2023-12-09T05:57:49.961Z,51237.78
2023-12-09T06:02:54.327Z,51251.78
2023-12-09T06:07:58.730Z,51267.78
2023-12-09T06:13:04.678Z,51245.78
2023-12-09T06:18:09.133Z,51257.78
2023-12-09T06:23:13.664Z,51245.78
2023-12-09T06:28:19.543Z,51277.78
2023-12-09T06:33:23.996Z,51265.78
2023-12-09T06:38:28.641Z,51249.78
2023-12-09T06:43:34.479Z,51257.78
2023-12-09T06:48:40.066Z,51297.78
2023-12-09T06:53:44.695Z,51261.78
2023-12-09T06:58:50.641Z,51227.78
2023-12-09T07:03:55.205Z,51255.78
2023-12-09T07:08:59.904Z,51299.78
2023-12-09T07:14:06.497Z,51231.78
2023-12-09T07:19:11.020Z,51247.78
2023-12-09T07:24:15.577Z,51245.78
2023-12-09T07:29:21.372Z,51291.78
2023-12-09T07:34:25.903Z,51283.78
2023-12-09T07:39:30.428Z,51237.78
2023-12-09T07:44:36.265Z,51237.78
2023-12-09T07:49:40.831Z,51251.78
2023-12-09T07:54:45.362Z,51229.78
2023-12-09T07:59:51.205Z,51267.78
2023-12-09T08:04:55.922Z,51267.78
2023-12-09T08:10:00.428Z,51249.78
2023-12-09T08:15:07.838Z,51249.78
2023-12-09T08:20:13.820Z,51205.78
2023-12-09T08:25:18.420Z,51249.78
2023-12-09T08:30:24.520Z,51201.78
2023-12-09T08:35:29.118Z,51251.78
2023-12-09T08:40:33.843Z,51245.78
2023-12-09T08:45:39.694Z,51241.78
2023-12-09T08:50:44.182Z,51265.78
2023-12-09T08:55:48.492Z,51229.78
2023-12-09T09:00:54.331Z,51239.78
2023-12-09T09:06:00.693Z,51229.78
2023-12-09T09:11:05.394Z,51273.78
2023-12-09T09:16:11.255Z,51221.78
2023-12-09T09:21:16.667Z,51235.78
2023-12-09T09:26:20.975Z,51253.78
2023-12-09T09:31:26.719Z,51239.78
2023-12-09T09:36:32.042Z,51273.78
2023-12-09T09:41:46.654Z,51233.78
2023-12-09T09:46:57.027Z,51303.78
2023-12-09T09:52:04.960Z,51325.78
2023-12-09T09:57:10.266Z,51305.78
2023-12-09T10:02:22.242Z,51321.78
2023-12-09T10:07:27.309Z,51327.78
2023-12-09T10:12:33.122Z,51329.78
2023-12-09T10:17:40.436Z,51343.78
2023-12-09T10:22:45.131Z,51345.75
2023-12-09T10:27:50.375Z,51367.75
2023-12-09T10:32:57.092Z,51369.75
2023-12-09T10:38:03.526Z,51387.75
2023-12-09T10:43:07.968Z,51397.75
2023-12-09T10:48:13.806Z,51379.75
2023-12-09T10:53:18.290Z,51419.75
2023-12-09T10:58:23.573Z,51439.75
2023-12-09T11:03:30.905Z,51409.75
2023-12-09T11:08:36.955Z,51417.75
2023-12-09T11:13:46.041Z,51417.75
2023-12-09T11:18:52.933Z,51401.75
2023-12-09T11:23:59.155Z,51397.75
2023-12-09T11:29:05.197Z,51393.75
2023-12-09T11:34:13.447Z,51437.75
2023-12-09T11:39:21.586Z,51385.75
2023-12-09T11:44:26.977Z,51387.75
2023-12-09T11:49:33.444Z,51385.75
2023-12-09T11:54:38.121Z,51407.75
2023-12-09T11:59:42.531Z,51395.75
2023-12-09T12:04:48.453Z,51433.75
2023-12-09T12:09:53.053Z,51437.75
2023-12-09T12:14:58.104Z,51429.75
2023-12-09T12:20:07.126Z,51445.75
2023-12-09T12:25:11.825Z,51427.75
2023-12-09T12:30:16.607Z,51409.75
2023-12-09T12:35:24.977Z,51431.75
2023-12-09T12:40:29.705Z,51441.75
2023-12-09T12:45:35.377Z,51443.75
2023-12-09T12:50:41.764Z,51433.75
2023-12-09T12:55:46.727Z,51449.75
2023-12-09T13:00:53.729Z,51465.75
2023-12-09T13:06:00.372Z,51433.75
2023-12-09T13:11:05.151Z,51421.75
2023-12-09T13:16:10.572Z,51467.75
2023-12-09T13:21:16.628Z,51447.75
2023-12-09T13:26:21.205Z,51445.75
2023-12-09T13:31:26.075Z,51461.75
2023-12-09T13:36:32.627Z,51441.75
2023-12-09T13:41:37.547Z,51435.75
2023-12-09T13:46:42.368Z,51463.75
2023-12-09T13:51:48.325Z,51447.75
2023-12-09T13:56:53.230Z,51431.75
2023-12-09T14:01:58.377Z,51455.75
2023-12-09T14:07:04.389Z,51465.75
2023-12-09T14:12:09.991Z,51429.75
2023-12-09T14:17:15.139Z,51433.75
2023-12-09T14:22:21.080Z,51439.75
2023-12-09T14:27:25.615Z,51457.75
2023-12-09T14:32:30.450Z,51461.75
2023-12-09T14:37:36.688Z,51453.75
2023-12-09T14:42:41.911Z,51455.75
2023-12-09T14:47:54.142Z,51429.75
2023-12-09T14:53:07.415Z,51475.75
2023-12-09T14:58:12.061Z,51475.75
2023-12-09T15:03:17.835Z,51445.75
2023-12-09T15:08:25.223Z,51451.75
2023-12-09T15:13:29.806Z,51437.75
2023-12-09T15:18:34.496Z,51433.75
2023-12-09T15:23:40.468Z,51419.75
2023-12-09T15:28:46.481Z,51433.75
2023-12-09T15:33:53.667Z,51461.75
2023-12-09T15:38:59.809Z,51489.75
2023-12-09T15:44:04.385Z,51417.75
2023-12-09T15:49:09.055Z,51457.75
2023-12-09T15:54:15.747Z,51441.75
2023-12-09T15:59:20.745Z,51413.75
2023-12-09T16:04:25.444Z,51429.75
2023-12-09T16:09:38.511Z,51417.75
2023-12-09T16:14:53.896Z,51437.75
2023-12-09T16:20:00.389Z,51423.75
2023-12-09T16:25:07.996Z,51411.75
2023-12-09T16:30:13.287Z,51429.75
2023-12-09T16:35:18.010Z,51429.75
2023-12-09T16:40:25.188Z,51471.75
2023-12-09T16:45:30.493Z,51447.75
2023-12-09T16:50:35.155Z,51465.75
2023-12-09T16:55:41.330Z,51433.75
2023-12-09T17:00:46.432Z,51439.75
2023-12-09T17:05:51.386Z,51441.75
2023-12-09T17:10:59.229Z,51433.75
2023-12-09T17:16:03.904Z,51397.75
2023-12-09T17:21:09.283Z,51445.75
2023-12-09T17:26:15.763Z,51453.75
2023-12-09T17:31:20.456Z,51479.75
2023-12-09T17:36:27.362Z,51409.75
2023-12-09T17:41:33.602Z,51445.75
2023-12-09T17:46:38.160Z,51455.75
2023-12-09T17:51:42.690Z,51423.75
2023-12-09T17:56:49.249Z,51439.75
2023-12-09T18:01:54.402Z,51429.75
2023-12-09T18:06:58.890Z,51457.75
2023-12-09T18:12:05.641Z,51417.75
2023-12-09T18:17:10.221Z,51437.75
2023-12-09T18:22:14.776Z,51433.75
2023-12-09T18:27:20.826Z,51425.75
2023-12-09T18:32:25.510Z,51437.75
2023-12-09T18:37:30.104Z,51443.75
2023-12-09T18:42:36.239Z,51409.75
2023-12-09T18:47:41.595Z,51459.75
2023-12-09T18:52:46.074Z,51411.75
2023-12-09T18:57:52.138Z,51419.75
2023-12-09T19:02:59.731Z,51393.75
2023-12-09T19:08:04.721Z,51415.75
2023-12-09T19:13:10.720Z,51379.75
2023-12-09T19:18:15.356Z,51417.75
2023-12-09T19:23:20.024Z,51397.75
2023-12-09T19:28:27.242Z,51421.75
2023-12-09T19:33:31.761Z,51409.75
2023-12-09T19:38:36.498Z,51435.75
2023-12-09T19:43:46.072Z,51383.75
2023-12-09T19:48:51.230Z,51423.75
2023-12-09T19:53:55.928Z,51439.75
2023-12-09T19:59:01.841Z,51389.75
2023-12-09T20:04:07.303Z,51407.75
2023-12-09T20:09:11.882Z,51417.75
2023-12-09T20:14:17.893Z,51375.75
2023-12-09T20:19:25.881Z,51369.75
2023-12-09T20:24:31.046Z,51405.75
2023-12-09T20:29:37.256Z,51419.75
2023-12-09T20:34:41.877Z,51399.75
2023-12-09T20:39:46.960Z,51415.75
2023-12-09T20:44:52.982Z,51427.75
2023-12-09T20:49:57.623Z,51393.75
2023-12-09T20:55:02.190Z,51397.75
2023-12-09T21:00:09.554Z,51395.75
2023-12-09T21:05:15.205Z,51393.75
2023-12-09T21:10:19.760Z,51403.75
2023-12-09T21:15:27.073Z,51351.75
2023-12-09T21:20:32.636Z,51381.75
2023-12-09T21:25:37.139Z,51377.75
2023-12-09T21:30:45.146Z,51367.75
2023-12-09T21:35:49.749Z,51385.75
2023-12-09T21:40:54.211Z,51393.75
2023-12-09T21:46:00.286Z,51381.75
2023-12-09T21:51:06.573Z,51357.75
2023-12-09T21:56:21.923Z,51349.78
2023-12-09T22:01:27.893Z,51373.75
2023-12-09T22:06:32.378Z,51317.78
2023-12-09T22:11:36.877Z,51359.75
2023-12-09T22:16:44.234Z,51339.78
2023-12-09T22:21:50.166Z,51333.78
2023-12-09T22:26:54.714Z,51317.78
2023-12-09T22:32:00.616Z,51341.78
2023-12-09T22:37:05.138Z,51325.78
2023-12-09T22:42:09.913Z,51323.78
2023-12-09T22:47:15.942Z,51337.78
2023-12-09T22:52:20.373Z,51323.78
2023-12-09T22:57:24.855Z,51315.78
2023-12-09T23:02:31.056Z,51335.78
2023-12-09T23:07:35.750Z,51285.78
2023-12-09T23:12:40.351Z,51345.75
2023-12-09T23:17:50.188Z,51309.78
2023-12-09T23:22:55.149Z,51297.78
2023-12-09T23:27:59.634Z,51295.78
2023-12-09T23:33:06.675Z,51309.78
2023-12-09T23:38:13.292Z,51239.78
2023-12-09T23:43:17.886Z,51257.78
2023-12-09T23:48:24.011Z,51271.78
2023-12-09T23:53:28.551Z,51267.78
2023-12-09T23:58:33.036Z,51261.78
